Time;durP1;ratioP1;P1;durP2;ratioP2;P2;SDS_P1;SDS_P2;PMS_P1;PMS_P2;Temp;Humidity;BMP_temperature;BMP_pressure;BME280_temperature;BME280_humidity;BME280_pressure;Samples;Min_cycle;Max_cycle;Signal;HPM_P1;HPM_P2
2023/09/30 00:00:45;;;;;;;14.77;4.72;;;12.60;99.90;;;;;;4973827;28;20049;-79
2023/09/30 00:03:10;;;;;;;11.23;3.65;;;12.50;99.90;;;;;;4971414;28;20049;-79
2023/09/30 00:05:36;;;;;;;16.02;5.50;;;12.50;99.90;;;;;;4972147;28;20459;-79
2023/09/30 00:08:03;;;;;;;17.08;3.83;;;12.60;99.90;;;;;;4969762;28;20118;-79
2023/09/30 00:10:30;;;;;;;9.20;3.40;;;12.70;99.90;;;;;;4972480;28;20509;-79
2023/09/30 00:12:56;;;;;;;16.83;4.47;;;12.80;99.90;;;;;;4972793;28;20113;-79
2023/09/30 00:15:21;;;;;;;9.38;3.60;;;12.60;99.90;;;;;;4971947;28;20042;-79
2023/09/30 00:17:47;;;;;;;8.73;3.90;;;12.60;99.90;;;;;;4972052;28;20069;-79
2023/09/30 00:20:14;;;;;;;9.93;3.33;;;12.50;99.90;;;;;;4976893;28;20034;-79
2023/09/30 00:22:40;;;;;;;11.35;3.33;;;12.60;99.90;;;;;;4972972;28;20434;-80
2023/09/30 00:25:06;;;;;;;19.20;4.90;;;12.70;99.90;;;;;;4970980;28;20038;-80
2023/09/30 00:27:32;;;;;;;9.70;3.47;;;12.60;99.90;;;;;;4955690;28;20459;-80
2023/09/30 00:29:58;;;;;;;10.95;3.78;;;12.50;99.90;;;;;;4938341;28;20488;-80
2023/09/30 00:32:23;;;;;;;8.35;3.20;;;12.60;99.90;;;;;;4963889;28;20058;-79
2023/09/30 00:34:49;;;;;;;12.27;3.78;;;12.70;99.90;;;;;;4973000;28;20034;-79
2023/09/30 00:37:14;;;;;;;12.20;4.60;;;12.60;99.90;;;;;;4970795;28;20026;-79
2023/09/30 00:39:40;;;;;;;10.90;3.83;;;12.60;99.90;;;;;;4983547;28;20042;-80
2023/09/30 00:42:06;;;;;;;15.10;4.82;;;12.50;99.90;;;;;;4975958;28;20034;-79
2023/09/30 00:44:32;;;;;;;15.70;5.22;;;12.60;99.90;;;;;;4957332;28;20039;-79
2023/09/30 00:46:57;;;;;;;15.13;4.75;;;12.60;99.90;;;;;;4968066;28;20041;-79
2023/09/30 00:49:23;;;;;;;9.65;3.20;;;12.60;99.90;;;;;;4972572;28;20049;-80
2023/09/30 00:51:49;;;;;;;11.85;4.45;;;12.60;99.90;;;;;;4969819;28;20097;-79
2023/09/30 00:54:14;;;;;;;17.10;4.38;;;12.60;99.90;;;;;;4969725;28;20444;-80
2023/09/30 00:56:48;;;;;;;16.63;5.32;;;12.50;99.90;;;;;;4973587;28;20031;-79
2023/09/30 00:59:14;;;;;;;10.05;3.10;;;12.60;99.90;;;;;;4967569;28;20570;-79
2023/09/30 01:01:41;;;;;;;7.05;2.88;;;12.60;99.90;;;;;;4971302;28;20051;-79
2023/09/30 01:04:06;;;;;;;8.52;3.15;;;12.60;99.90;;;;;;4972424;28;20618;-79
2023/09/30 01:06:32;;;;;;;12.57;4.55;;;12.60;99.90;;;;;;4971808;28;20039;-78
2023/09/30 01:08:58;;;;;;;11.18;4.07;;;12.60;99.90;;;;;;4970401;28;20128;-79
2023/09/30 01:11:24;;;;;;;12.70;4.38;;;12.60;99.90;;;;;;4971704;28;20434;-78
2023/09/30 01:13:49;;;;;;;20.73;4.65;;;12.60;99.90;;;;;;4972331;28;20034;-79
2023/09/30 01:16:15;;;;;;;15.70;4.65;;;12.50;99.90;;;;;;4973489;28;20081;-79
2023/09/30 01:18:42;;;;;;;11.05;4.32;;;12.50;99.90;;;;;;4971892;28;20031;-79
2023/09/30 01:21:08;;;;;;;14.63;4.07;;;12.40;99.90;;;;;;4969281;28;20061;-80
2023/09/30 01:23:35;;;;;;;13.77;3.47;;;12.30;99.90;;;;;;4969950;28;20062;-78
2023/09/30 01:26:10;;;;;;;15.40;4.78;;;12.30;99.90;;;;;;4972319;28;20473;-79
2023/09/30 01:28:36;;;;;;;8.07;3.33;;;12.50;99.90;;;;;;4973850;28;20114;-78
2023/09/30 01:31:02;;;;;;;16.02;4.50;;;12.40;99.90;;;;;;4968699;28;20470;-79
2023/09/30 01:33:28;;;;;;;10.90;3.33;;;12.40;99.90;;;;;;4971547;28;20582;-79
2023/09/30 01:35:53;;;;;;;11.70;3.55;;;12.30;99.90;;;;;;4972267;28;20034;-79
2023/09/30 01:38:19;;;;;;;11.02;3.00;;;12.30;99.90;;;;;;4973954;28;20399;-78
2023/09/30 01:40:46;;;;;;;10.63;3.90;;;12.30;99.90;;;;;;4967999;28;20038;-78
2023/09/30 01:43:15;;;;;;;8.48;2.58;;;12.40;99.90;;;;;;4971474;28;20747;-79
2023/09/30 01:45:41;;;;;;;7.30;2.90;;;12.30;99.90;;;;;;4966691;28;20031;-78
2023/09/30 01:48:07;;;;;;;9.60;2.95;;;12.40;99.90;;;;;;4972253;28;20046;-78
2023/09/30 01:50:32;;;;;;;8.48;2.92;;;12.40;99.90;;;;;;4971220;28;20157;-79
2023/09/30 01:52:58;;;;;;;9.98;3.28;;;12.50;99.90;;;;;;4971476;28;20030;-79
2023/09/30 01:55:24;;;;;;;12.73;3.92;;;12.50;99.90;;;;;;4969397;28;20027;-78
2023/09/30 01:57:49;;;;;;;10.05;4.03;;;12.30;99.90;;;;;;4970123;28;20543;-78
2023/09/30 02:00:15;;;;;;;11.25;2.97;;;12.10;99.90;;;;;;4967940;28;20038;-79
2023/09/30 02:02:41;;;;;;;13.82;4.10;;;12.10;99.90;;;;;;4952222;28;20081;-79
2023/09/30 02:05:10;;;;;;;10.57;4.32;;;12.10;99.90;;;;;;4969700;28;20042;-79
2023/09/30 02:07:36;;;;;;;15.50;5.10;;;12.10;99.90;;;;;;4968890;28;20090;-78
2023/09/30 02:10:02;;;;;;;11.43;4.53;;;12.00;99.90;;;;;;4970545;28;20043;-78
2023/09/30 02:12:30;;;;;;;9.20;3.40;;;12.00;99.90;;;;;;4983201;28;20035;-78
2023/09/30 02:14:58;;;;;;;11.73;5.07;;;12.00;99.90;;;;;;4967903;28;20057;-78
2023/09/30 02:17:23;;;;;;;10.23;3.75;;;12.10;99.90;;;;;;4966727;28;20057;-79
2023/09/30 02:19:49;;;;;;;9.68;3.50;;;12.10;99.90;;;;;;4971155;28;20310;-78
2023/09/30 02:22:15;;;;;;;15.00;5.45;;;12.00;99.90;;;;;;4972122;28;20087;-78
2023/09/30 02:24:40;;;;;;;11.55;3.50;;;12.00;99.90;;;;;;4974223;28;20041;-78
2023/09/30 02:27:06;;;;;;;7.18;2.65;;;12.00;99.90;;;;;;4968424;28;20042;-78
2023/09/30 02:29:32;;;;;;;7.63;3.25;;;12.20;99.90;;;;;;4971342;28;20074;-79
2023/09/30 02:31:58;;;;;;;11.73;4.20;;;12.20;99.90;;;;;;4968563;28;20060;-79
2023/09/30 02:34:23;;;;;;;14.35;4.43;;;12.00;99.90;;;;;;4952421;28;20514;-78
2023/09/30 02:36:49;;;;;;;10.27;2.90;;;11.90;99.90;;;;;;4948802;28;20027;-79
2023/09/30 02:39:16;;;;;;;10.98;3.25;;;11.90;99.90;;;;;;4969122;28;20526;-79
2023/09/30 02:41:42;;;;;;;16.27;4.70;;;11.90;99.90;;;;;;4969846;28;20037;-79
2023/09/30 02:44:07;;;;;;;9.52;3.63;;;11.80;99.90;;;;;;4967700;28;20046;-78
2023/09/30 02:46:33;;;;;;;15.30;4.43;;;11.90;99.90;;;;;;4965783;28;20039;-79
2023/09/30 02:49:01;;;;;;;9.48;3.47;;;11.90;99.90;;;;;;4968306;28;20043;-79
2023/09/30 02:51:26;;;;;;;11.73;5.03;;;11.70;99.90;;;;;;4944813;28;20039;-79
2023/09/30 02:53:52;;;;;;;7.80;3.83;;;11.60;99.90;;;;;;4968676;28;20386;-79
2023/09/30 02:56:19;;;;;;;18.25;4.85;;;11.60;99.90;;;;;;4966780;28;20078;-80
2023/09/30 02:58:45;;;;;;;7.32;3.83;;;11.70;99.90;;;;;;4971746;28;20031;-78
2023/09/30 03:01:16;;;;;;;9.80;3.70;;;11.60;99.90;;;;;;4951889;28;20038;-78
2023/09/30 03:03:44;;;;;;;7.72;3.58;;;11.60;99.90;;;;;;4974950;28;20034;-78
2023/09/30 03:06:10;;;;;;;11.93;4.43;;;11.60;99.90;;;;;;4967292;28;20046;-78
2023/09/30 03:08:36;;;;;;;12.60;4.05;;;11.60;99.90;;;;;;4966510;28;20034;-78
2023/09/30 03:11:02;;;;;;;9.98;4.13;;;11.60;99.90;;;;;;4969508;28;20487;-77
2023/09/30 03:13:27;;;;;;;9.77;3.80;;;11.40;99.90;;;;;;4951032;28;20062;-78
2023/09/30 03:15:53;;;;;;;10.63;4.20;;;11.30;99.90;;;;;;4967825;28;20031;-78
2023/09/30 03:18:23;;;;;;;12.70;3.75;;;11.30;99.90;;;;;;4951478;28;20035;-78
2023/09/30 03:20:50;;;;;;;10.38;3.83;;;11.50;99.90;;;;;;4976378;28;20027;-78
2023/09/30 03:23:16;;;;;;;13.52;4.32;;;11.60;99.90;;;;;;4971232;28;20030;-78
2023/09/30 03:25:42;;;;;;;11.23;4.07;;;11.60;99.90;;;;;;4971778;28;20043;-78
2023/09/30 03:28:07;;;;;;;9.07;3.83;;;11.40;99.90;;;;;;4972364;28;20038;-79
2023/09/30 03:30:33;;;;;;;11.93;3.80;;;11.40;99.90;;;;;;4972632;28;20039;-79
2023/09/30 03:32:58;;;;;;;11.90;3.80;;;11.40;99.90;;;;;;4952162;28;20368;-77
2023/09/30 03:35:24;;;;;;;8.70;4.35;;;11.30;99.90;;;;;;4969687;28;20034;-79
2023/09/30 03:37:50;;;;;;;8.95;3.20;;;11.30;99.90;;;;;;4954221;28;20046;-79
2023/09/30 03:40:18;;;;;;;6.05;2.80;;;11.40;99.90;;;;;;4965839;28;20046;-79
2023/09/30 03:42:45;;;;;;;10.20;3.38;;;11.40;99.90;;;;;;4969206;28;20031;-81
2023/09/30 03:45:11;;;;;;;6.00;2.97;;;11.50;99.90;;;;;;4969847;28;20026;-80
2023/09/30 03:47:37;;;;;;;10.85;4.03;;;11.50;99.90;;;;;;4970458;28;20031;-81
2023/09/30 03:50:04;;;;;;;15.57;4.28;;;11.40;99.90;;;;;;4967722;28;20126;-80
2023/09/30 03:52:33;;;;;;;10.70;4.13;;;11.30;99.90;;;;;;4975111;28;20030;-79
2023/09/30 03:54:59;;;;;;;6.22;2.92;;;11.40;99.90;;;;;;4969462;28;20034;-79
2023/09/30 03:57:25;;;;;;;6.00;3.22;;;11.40;99.90;;;;;;4956611;28;20121;-80
2023/09/30 03:59:52;;;;;;;8.85;2.70;;;11.50;99.90;;;;;;4954455;28;20110;-79
2023/09/30 04:02:19;;;;;;;8.68;3.00;;;11.60;99.90;;;;;;4974571;28;20392;-79
2023/09/30 04:04:46;;;;;;;10.90;4.35;;;11.70;99.90;;;;;;4973449;28;20617;-79
2023/09/30 04:07:11;;;;;;;6.18;3.03;;;11.60;99.90;;;;;;4968760;28;20121;-78
2023/09/30 04:09:37;;;;;;;8.18;3.47;;;11.40;99.90;;;;;;4971428;28;20431;-79
2023/09/30 04:12:03;;;;;;;8.98;3.13;;;11.40;99.90;;;;;;4970599;28;20035;-79
2023/09/30 04:14:28;;;;;;;13.93;4.25;;;11.50;99.90;;;;;;4972157;28;20026;-78
2023/09/30 04:16:54;;;;;;;8.82;3.60;;;11.40;99.90;;;;;;4975209;28;20391;-79
2023/09/30 04:19:20;;;;;;;12.20;4.47;;;11.20;99.90;;;;;;4971896;28;20027;-78
2023/09/30 04:21:46;;;;;;;19.05;4.97;;;11.00;99.90;;;;;;4957002;28;20513;-79
2023/09/30 04:24:12;;;;;;;15.70;5.63;;;11.00;99.90;;;;;;4977271;28;20029;-78
2023/09/30 04:26:37;;;;;;;11.27;4.80;;;10.90;99.90;;;;;;4962225;28;20443;-78
2023/09/30 04:29:04;;;;;;;7.47;3.15;;;11.10;99.90;;;;;;4985721;28;20512;-79
2023/09/30 04:31:30;;;;;;;7.00;2.75;;;11.20;99.90;;;;;;4969234;28;20583;-79
2023/09/30 04:33:57;;;;;;;15.27;5.18;;;11.30;99.90;;;;;;4956610;28;20059;-79
2023/09/30 04:36:23;;;;;;;13.85;5.50;;;11.20;99.90;;;;;;4971999;28;20045;-79
2023/09/30 04:38:48;;;;;;;11.52;4.35;;;11.10;99.90;;;;;;4970919;28;20043;-78
2023/09/30 04:41:15;;;;;;;6.18;3.05;;;10.90;99.90;;;;;;4971109;28;20036;-79
2023/09/30 04:43:43;;;;;;;10.80;4.10;;;11.00;99.90;;;;;;4972331;28;20066;-79
2023/09/30 04:46:08;;;;;;;14.73;5.95;;;11.20;99.90;;;;;;4969491;28;20034;-79
2023/09/30 04:48:34;;;;;;;9.35;3.20;;;11.10;99.90;;;;;;4969425;28;20035;-79
2023/09/30 04:51:00;;;;;;;7.82;3.63;;;10.90;99.90;;;;;;4974380;28;20121;-79
2023/09/30 04:53:26;;;;;;;9.77;4.43;;;11.00;99.90;;;;;;4952545;28;20050;-78
2023/09/30 04:55:51;;;;;;;16.73;5.20;;;10.90;99.90;;;;;;4970337;28;20046;-79
2023/09/30 04:58:17;;;;;;;8.68;3.70;;;10.90;99.90;;;;;;4970142;28;20026;-79
2023/09/30 05:00:43;;;;;;;8.68;3.83;;;10.90;99.90;;;;;;4967444;28;20033;-79
2023/09/30 05:03:08;;;;;;;12.27;3.78;;;10.80;99.90;;;;;;4967491;28;20038;-80
2023/09/30 05:05:35;;;;;;;10.45;3.83;;;10.80;99.90;;;;;;4973652;28;20038;-79
2023/09/30 05:08:01;;;;;;;12.30;5.10;;;10.70;99.90;;;;;;4972503;28;20670;-78
2023/09/30 05:10:27;;;;;;;14.88;5.07;;;10.80;99.90;;;;;;4975669;28;20089;-78
2023/09/30 05:12:54;;;;;;;9.18;4.30;;;10.80;99.90;;;;;;4973191;28;20038;-78
2023/09/30 05:15:20;;;;;;;14.95;5.32;;;10.90;99.90;;;;;;4973755;28;20038;-78
2023/09/30 05:17:46;;;;;;;10.40;4.10;;;10.90;99.90;;;;;;4971767;28;20551;-78
2023/09/30 05:20:12;;;;;;;9.23;5.05;;;10.80;99.90;;;;;;4972519;28;20093;-78
2023/09/30 05:22:40;;;;;;;9.23;4.18;;;10.90;99.90;;;;;;4970315;28;20502;-78
2023/09/30 05:25:06;;;;;;;19.20;6.40;;;10.90;99.90;;;;;;4969499;28;20379;-79
2023/09/30 05:27:32;;;;;;;16.02;6.45;;;10.90;99.90;;;;;;4972830;28;20031;-78
2023/09/30 05:29:57;;;;;;;10.35;4.97;;;10.70;99.90;;;;;;4972184;28;20115;-79
2023/09/30 05:32:23;;;;;;;6.93;3.83;;;10.70;99.90;;;;;;4984685;28;20039;-79
2023/09/30 05:34:49;;;;;;;7.38;3.38;;;10.50;99.90;;;;;;4971256;28;20030;-79
2023/09/30 05:37:14;;;;;;;10.55;4.63;;;10.60;99.90;;;;;;4974225;28;20078;-78
2023/09/30 05:39:40;;;;;;;8.02;3.20;;;10.80;99.90;;;;;;4972563;28;20077;-79
2023/09/30 05:42:06;;;;;;;14.38;6.88;;;10.80;99.90;;;;;;4970159;28;20035;-79
2023/09/30 05:44:32;;;;;;;15.73;6.07;;;10.90;99.90;;;;;;4969893;28;20062;-78
2023/09/30 05:46:59;;;;;;;15.80;6.80;;;10.80;99.90;;;;;;4979743;28;20043;-78
2023/09/30 05:49:25;;;;;;;7.82;4.18;;;10.80;99.90;;;;;;4971972;28;20110;-78
2023/09/30 05:51:51;;;;;;;8.90;4.95;;;10.70;99.90;;;;;;4969634;28;20565;-78
2023/09/30 05:54:16;;;;;;;10.48;5.07;;;10.70;99.90;;;;;;4973074;28;20039;-78
2023/09/30 05:56:45;;;;;;;11.75;4.05;;;11.00;99.90;;;;;;4970493;28;20074;-79
2023/09/30 05:59:11;;;;;;;12.43;4.95;;;10.90;99.90;;;;;;4969325;28;20047;-78
2023/09/30 06:01:37;;;;;;;16.17;6.97;;;11.00;99.90;;;;;;4968005;28;20514;-79
2023/09/30 06:04:04;;;;;;;10.50;4.47;;;10.90;99.90;;;;;;4950114;28;20043;-78
2023/09/30 06:06:30;;;;;;;8.70;4.13;;;10.90;99.90;;;;;;4969353;28;20035;-78
2023/09/30 06:08:58;;;;;;;7.72;4.05;;;10.90;99.90;;;;;;4953215;28;20414;-79
2023/09/30 06:11:24;;;;;;;8.45;4.50;;;11.00;99.90;;;;;;4982903;28;20101;-79
2023/09/30 06:13:53;;;;;;;8.90;4.22;;;11.10;99.90;;;;;;4967448;28;20038;-79
2023/09/30 06:16:19;;;;;;;21.80;7.07;;;11.00;99.90;;;;;;4967694;28;20085;-79
2023/09/30 06:18:48;;;;;;;14.65;6.57;;;11.10;99.90;;;;;;4954778;28;20027;-79
2023/09/30 06:21:20;;;;;;;20.58;7.60;;;10.90;99.90;;;;;;4950459;28;20053;-79
2023/09/30 06:23:51;;;;;;;14.27;7.82;;;11.10;99.90;;;;;;4954486;28;20054;-78
2023/09/30 06:26:17;;;;;;;13.85;6.15;;;11.20;99.90;;;;;;4967996;28;20042;-78
2023/09/30 06:28:43;;;;;;;10.85;4.88;;;11.20;99.90;;;;;;4950644;28;20399;-78
2023/09/30 06:31:09;;;;;;;22.42;8.40;;;11.30;99.90;;;;;;4968573;28;20737;-78
2023/09/30 06:33:35;;;;;;;21.88;9.73;;;11.30;99.90;;;;;;4971950;28;20038;-78
2023/09/30 06:36:02;;;;;;;20.63;8.48;;;11.20;99.90;;;;;;4967894;28;20046;-79
2023/09/30 06:38:27;;;;;;;16.65;5.43;;;11.20;99.90;;;;;;4965733;28;20039;-80
2023/09/30 06:40:53;;;;;;;12.57;5.40;;;11.30;99.90;;;;;;4950811;28;20062;-79
2023/09/30 06:43:19;;;;;;;18.98;8.48;;;11.50;99.90;;;;;;4975272;28;20030;-78
2023/09/30 06:45:46;;;;;;;17.73;7.95;;;11.40;99.90;;;;;;4949572;28;20045;-78
2023/09/30 06:48:12;;;;;;;22.08;10.45;;;11.40;99.90;;;;;;4961754;28;20507;-78
2023/09/30 06:50:45;;;;;;;25.27;10.27;;;11.30;99.90;;;;;;4969484;28;20722;-79
2023/09/30 06:53:10;;;;;;;15.07;6.53;;;11.50;99.90;;;;;;4966482;28;20049;-78
2023/09/30 06:55:39;;;;;;;32.10;9.25;;;11.70;99.90;;;;;;4970638;28;20038;-78
2023/09/30 06:58:07;;;;;;;17.70;8.60;;;11.80;99.90;;;;;;4950728;28;20735;-78
2023/09/30 07:00:33;;;;;;;12.00;6.38;;;11.90;99.90;;;;;;4973282;28;20042;-78
2023/09/30 07:02:59;;;;;;;22.00;8.32;;;11.90;99.90;;;;;;4969316;28;20050;-78
2023/09/30 07:05:24;;;;;;;19.88;8.65;;;12.00;99.90;;;;;;4969302;28;20045;-78
2023/09/30 07:07:51;;;;;;;19.05;7.28;;;12.10;99.90;;;;;;4966924;28;20055;-79
2023/09/30 07:10:16;;;;;;;21.85;8.02;;;12.30;99.90;;;;;;4966367;28;20043;-79
2023/09/30 07:12:42;;;;;;;20.48;9.40;;;12.30;99.90;;;;;;4966685;28;20047;-79
2023/09/30 07:15:08;;;;;;;27.45;10.30;;;12.30;99.90;;;;;;4980776;28;20036;-78
2023/09/30 07:17:34;;;;;;;27.45;10.85;;;12.40;99.90;;;;;;4969334;28;20038;-79
2023/09/30 07:19:59;;;;;;;21.33;10.60;;;12.40;99.90;;;;;;4952107;28;20046;-78
2023/09/30 07:22:25;;;;;;;24.38;9.15;;;12.60;99.90;;;;;;4971349;28;20475;-80
2023/09/30 07:24:50;;;;;;;20.98;10.43;;;12.60;99.90;;;;;;4953885;28;20046;-78
2023/09/30 07:27:16;;;;;;;23.90;8.88;;;12.70;99.90;;;;;;4974275;28;20038;-80
2023/09/30 07:29:42;;;;;;;22.67;9.65;;;12.60;99.90;;;;;;4973367;28;20084;-79
2023/09/30 07:32:08;;;;;;;15.02;7.55;;;12.70;99.90;;;;;;4981441;28;21099;-80
2023/09/30 07:34:34;;;;;;;18.27;8.13;;;12.80;99.90;;;;;;4973856;28;20039;-80
2023/09/30 07:36:59;;;;;;;18.35;7.38;;;12.90;99.90;;;;;;4974894;28;20042;-80
2023/09/30 07:39:25;;;;;;;18.67;8.45;;;13.10;99.90;;;;;;4976127;28;20393;-80
2023/09/30 07:41:50;;;;;;;25.00;10.32;;;13.20;99.90;;;;;;4972847;28;20552;-80
2023/09/30 07:44:16;;;;;;;15.27;6.88;;;13.20;99.90;;;;;;4973114;28;20038;-80
2023/09/30 07:46:43;;;;;;;21.90;8.68;;;13.20;99.90;;;;;;4974599;28;20057;-80
2023/09/30 07:49:10;;;;;;;13.48;5.45;;;13.30;99.90;;;;;;4975917;28;20034;-80
2023/09/30 07:51:35;;;;;;;11.63;5.57;;;13.50;99.90;;;;;;4973148;28;20031;-80
2023/09/30 07:54:01;;;;;;;12.65;5.05;;;13.80;99.90;;;;;;4957141;28;20534;-80
2023/09/30 07:56:26;;;;;;;12.40;4.55;;;13.80;99.90;;;;;;4974696;28;20048;-80
2023/09/30 07:58:52;;;;;;;32.95;7.90;;;13.90;99.90;;;;;;4978038;28;20439;-80
2023/09/30 08:01:18;;;;;;;9.48;4.38;;;13.90;99.90;;;;;;4975309;28;20047;-80
2023/09/30 08:03:44;;;;;;;12.23;5.40;;;14.00;99.90;;;;;;4971350;28;20034;-79
2023/09/30 08:06:10;;;;;;;9.43;4.53;;;14.30;99.90;;;;;;4975924;28;20116;-80
2023/09/30 08:08:39;;;;;;;8.68;4.40;;;14.30;99.90;;;;;;4956899;28;20168;-80
2023/09/30 08:11:05;;;;;;;10.27;4.45;;;14.50;99.90;;;;;;4953152;28;20058;-81
2023/09/30 08:13:32;;;;;;;9.90;3.45;;;14.90;99.90;;;;;;4973730;28;20034;-80
2023/09/30 08:16:01;;;;;;;12.05;5.05;;;15.00;99.90;;;;;;4954770;28;20062;-79
2023/09/30 08:18:26;;;;;;;13.43;5.55;;;15.00;99.90;;;;;;4969839;28;20042;-80
2023/09/30 08:20:52;;;;;;;18.98;7.45;;;14.90;99.90;;;;;;4974404;28;20030;-80
2023/09/30 08:23:17;;;;;;;12.48;4.80;;;14.90;99.90;;;;;;4970761;28;20069;-80
2023/09/30 08:25:43;;;;;;;12.45;4.78;;;15.40;99.90;;;;;;4973750;28;20505;-80
2023/09/30 08:28:09;;;;;;;9.60;4.45;;;15.50;99.90;;;;;;4970166;28;20578;-79
2023/09/30 08:30:35;;;;;;;13.63;5.50;;;15.50;99.90;;;;;;4969424;28;20035;-80
2023/09/30 08:33:01;;;;;;;20.60;6.47;;;15.90;99.90;;;;;;4976078;28;20073;-80
2023/09/30 08:35:27;;;;;;;14.23;5.78;;;15.70;99.90;;;;;;4973250;28;20102;-80
2023/09/30 08:37:53;;;;;;;20.30;6.90;;;16.10;99.90;;;;;;4971883;28;20519;-80
2023/09/30 08:40:21;;;;;;;14.55;6.10;;;15.80;99.90;;;;;;4973877;28;20049;-79
2023/09/30 08:42:52;;;;;;;17.25;4.90;;;15.90;99.90;;;;;;4972120;28;20075;-80
2023/09/30 08:45:18;;;;;;;10.98;5.47;;;16.10;99.90;;;;;;4968973;28;20085;-80
2023/09/30 08:47:43;;;;;;;19.20;7.10;;;16.40;99.90;;;;;;4954673;28;20491;-80
2023/09/30 08:50:10;;;;;;;14.38;5.07;;;16.70;99.90;;;;;;4969787;28;20030;-80
2023/09/30 08:52:39;;;;;;;15.23;6.05;;;16.90;99.90;;;;;;4973864;28;20027;-80
2023/09/30 08:55:05;;;;;;;12.60;5.45;;;17.00;99.90;;;;;;4959803;28;20034;-80
2023/09/30 08:57:30;;;;;;;16.13;6.32;;;17.00;99.90;;;;;;4971176;28;20022;-79
2023/09/30 08:59:56;;;;;;;15.48;5.65;;;17.10;99.90;;;;;;4972750;28;20034;-80
2023/09/30 09:02:22;;;;;;;12.90;5.60;;;16.90;99.90;;;;;;4969645;28;20411;-80
2023/09/30 09:04:49;;;;;;;15.15;6.85;;;16.60;99.90;;;;;;4952054;28;20044;-80
2023/09/30 09:07:14;;;;;;;11.02;5.00;;;17.10;99.90;;;;;;4970592;28;20043;-79
2023/09/30 09:09:40;;;;;;;12.63;5.25;;;16.90;99.90;;;;;;4970188;28;20372;-79
2023/09/30 09:12:06;;;;;;;18.27;6.55;;;17.30;99.90;;;;;;4970631;28;20062;-80
2023/09/30 09:14:41;;;;;;;17.50;6.95;;;18.00;99.90;;;;;;4967434;28;20125;-80
2023/09/30 09:17:08;;;;;;;12.20;5.57;;;17.90;99.90;;;;;;4972831;28;20111;-80
2023/09/30 09:19:36;;;;;;;12.80;6.47;;;17.80;99.90;;;;;;4969150;28;20453;-80
2023/09/30 09:22:04;;;;;;;13.73;6.28;;;18.30;99.90;;;;;;4968944;28;20117;-79
2023/09/30 09:24:34;;;;;;;16.75;8.63;;;18.20;99.90;;;;;;4968996;28;20506;-80
2023/09/30 09:27:09;;;;;;;17.70;6.97;;;18.30;99.90;;;;;;4969238;28;20497;-80
2023/09/30 09:29:38;;;;;;;12.20;6.93;;;18.10;99.90;;;;;;4986866;28;20096;-80
2023/09/30 09:32:13;;;;;;;11.82;5.22;;;17.40;99.90;;;;;;4967446;28;20042;-80
2023/09/30 09:34:43;;;;;;;10.73;5.03;;;18.00;99.90;;;;;;4966909;28;20039;-80
2023/09/30 09:37:18;;;;;;;16.77;6.50;;;18.70;99.90;;;;;;4953690;28;20045;-80
2023/09/30 09:39:53;;;;;;;8.73;4.70;;;19.10;99.90;;;;;;4972374;28;20038;-80
2023/09/30 09:42:26;;;;;;;10.85;4.45;;;19.60;99.90;;;;;;4985298;28;20174;-80
2023/09/30 09:44:54;;;;;;;14.85;4.60;;;19.80;99.90;;;;;;4966984;28;20039;-80
2023/09/30 09:47:20;;;;;;;11.18;4.43;;;19.60;99.90;;;;;;4971027;28;20535;-80
2023/09/30 09:49:45;;;;;;;12.75;5.30;;;19.70;99.90;;;;;;4954174;28;20054;-81
2023/09/30 09:52:11;;;;;;;6.85;3.83;;;19.50;99.90;;;;;;4955906;28;20027;-81
2023/09/30 09:54:37;;;;;;;9.60;4.25;;;19.10;99.90;;;;;;4967866;28;20046;-80
2023/09/30 09:57:03;;;;;;;12.95;4.32;;;18.90;99.90;;;;;;4970746;28;20035;-80
2023/09/30 09:59:29;;;;;;;9.68;3.70;;;18.70;99.90;;;;;;4972878;28;20058;-80
2023/09/30 10:01:55;;;;;;;9.27;4.13;;;18.70;99.90;;;;;;4971480;28;20046;-80
2023/09/30 10:04:21;;;;;;;6.88;3.50;;;18.50;99.90;;;;;;4968907;28;20027;-81
2023/09/30 10:06:48;;;;;;;11.30;3.83;;;18.70;99.90;;;;;;4972091;28;20035;-80
2023/09/30 10:09:14;;;;;;;12.32;4.03;;;19.20;99.90;;;;;;4953230;28;20488;-80
2023/09/30 10:11:40;;;;;;;10.68;4.00;;;19.80;99.90;;;;;;4973121;28;20141;-80
2023/09/30 10:14:11;;;;;;;5.00;3.30;;;19.70;99.90;;;;;;4967298;28;20043;-80
2023/09/30 10:16:37;;;;;;;10.30;3.55;;;20.00;99.90;;;;;;4969418;28;20027;-80
2023/09/30 10:19:19;;;;;;;6.20;2.58;;;19.60;99.90;;;;;;4969243;28;20465;-80
2023/09/30 10:22:16;;;;;;;13.38;3.15;;;19.80;99.90;;;;;;4966356;28;20035;-80
2023/09/30 10:24:42;;;;;;;6.78;3.17;;;20.00;99.90;;;;;;4977321;28;20108;-80
2023/09/30 10:27:28;;;;;;;5.47;3.10;;;20.60;99.90;;;;;;4964354;28;20047;-80
2023/09/30 10:30:05;;;;;;;8.73;3.75;;;20.80;99.90;;;;;;4964814;28;20053;-80
2023/09/30 10:32:59;;;;;;;9.55;2.92;;;20.80;99.90;;;;;;4970059;28;20560;-80
2023/09/30 10:35:27;;;;;;;5.38;2.13;;;20.80;99.90;;;;;;4982206;28;20036;-80
2023/09/30 10:38:33;;;;;;;4.50;2.88;;;20.80;99.90;;;;;;4972071;28;20762;-80
2023/09/30 10:40:59;;;;;;;5.10;2.70;;;20.60;99.90;;;;;;4967051;28;20026;-80
2023/09/30 10:43:31;;;;;;;7.03;2.90;;;21.30;98.50;;;;;;4975315;28;20637;-80
2023/09/30 10:45:58;;;;;;;7.22;2.47;;;21.90;96.70;;;;;;4968322;28;20117;-80
2023/09/30 10:48:32;;;;;;;7.85;3.25;;;21.70;97.80;;;;;;4969988;28;20373;-80
2023/09/30 10:51:10;;;;;;;7.88;2.95;;;21.30;98.90;;;;;;4968901;28;20505;-80
2023/09/30 10:53:40;;;;;;;5.15;2.42;;;21.00;99.50;;;;;;4953152;28;20035;-80
2023/09/30 10:56:06;;;;;;;6.88;2.25;;;20.70;99.90;;;;;;4969614;28;20057;-80
2023/09/30 10:58:51;;;;;;;4.70;2.33;;;21.10;99.90;;;;;;4964952;28;20098;-80
2023/09/30 11:01:17;;;;;;;5.18;2.50;;;20.70;99.90;;;;;;4984446;28;20073;-79
2023/09/30 11:03:44;;;;;;;4.63;2.20;;;21.20;99.90;;;;;;4957030;28;20093;-79
2023/09/30 11:06:17;;;;;;;5.90;2.65;;;21.50;99.10;;;;;;4976968;28;21521;-79
2023/09/30 11:08:46;;;;;;;5.45;2.05;;;21.90;98.40;;;;;;4971868;28;20084;-80
2023/09/30 11:11:14;;;;;;;7.90;3.00;;;22.50;95.50;;;;;;4957076;28;20070;-79
2023/09/30 11:13:40;;;;;;;4.80;2.33;;;22.30;97.30;;;;;;4971844;28;20037;-79
2023/09/30 11:16:05;;;;;;;9.15;2.90;;;21.70;99.20;;;;;;4975631;28;20058;-79
2023/09/30 11:18:31;;;;;;;5.35;2.67;;;22.50;96.80;;;;;;4971272;28;20037;-79
2023/09/30 11:21:11;;;;;;;7.00;2.83;;;22.90;94.20;;;;;;4990620;28;20039;-79
2023/09/30 11:23:37;;;;;;;8.98;2.92;;;22.80;95.30;;;;;;4957565;28;20038;-79
2023/09/30 11:26:02;;;;;;;6.53;2.78;;;23.00;94.00;;;;;;4974762;28;20518;-79
2023/09/30 11:28:40;;;;;;;5.85;2.63;;;23.50;94.10;;;;;;4282692;28;10000332;-79
2023/09/30 11:31:14;;;;;;;9.02;2.88;;;23.40;94.00;;;;;;4970088;28;20483;-79
2023/09/30 11:33:50;;;;;;;4.32;2.10;;;23.40;94.20;;;;;;4970232;28;20031;-80
2023/09/30 11:36:16;;;;;;;4.80;2.83;;;23.40;93.80;;;;;;4968766;28;21103;-79
2023/09/30 11:38:45;;;;;;;7.30;2.58;;;23.70;92.80;;;;;;4980843;28;20034;-79
2023/09/30 11:41:11;;;;;;;5.45;2.28;;;23.90;91.90;;;;;;4955587;28;20066;-78
2023/09/30 11:43:36;;;;;;;5.22;2.47;;;23.90;92.80;;;;;;4973576;28;20074;-79
2023/09/30 11:46:10;;;;;;;6.38;2.83;;;23.90;92.60;;;;;;4967464;28;20046;-78
2023/09/30 11:48:36;;;;;;;6.38;2.88;;;23.90;92.90;;;;;;4968164;28;20065;-79
2023/09/30 11:51:03;;;;;;;5.25;2.05;;;23.80;92.40;;;;;;4972847;28;20035;-79
2023/09/30 11:53:32;;;;;;;9.18;2.40;;;23.00;94.00;;;;;;4969161;28;20133;-80
2023/09/30 11:55:59;;;;;;;5.38;1.88;;;23.40;93.30;;;;;;4954644;28;20046;-79
2023/09/30 11:58:27;;;;;;;6.40;2.72;;;24.00;91.20;;;;;;4969328;28;20113;-78
2023/09/30 12:00:57;;;;;;;5.38;1.98;;;23.30;93.90;;;;;;4970421;28;20495;-79
2023/09/30 12:03:23;;;;;;;5.35;2.72;;;24.30;90.00;;;;;;4974413;28;20035;-79
2023/09/30 12:05:49;;;;;;;6.43;2.42;;;24.50;90.30;;;;;;4979405;28;20320;-80
2023/09/30 12:08:15;;;;;;;6.43;2.80;;;24.70;86.30;;;;;;4970150;28;20133;-80
2023/09/30 12:10:40;;;;;;;4.97;1.85;;;25.10;88.20;;;;;;4967390;28;20027;-80
2023/09/30 12:13:06;;;;;;;6.57;2.83;;;24.30;90.50;;;;;;4970039;28;20058;-80
2023/09/30 12:15:31;;;;;;;4.45;2.22;;;23.90;91.30;;;;;;4973098;28;20072;-80
2023/09/30 12:17:57;;;;;;;4.78;2.10;;;24.10;90.00;;;;;;4979181;28;20030;-80
2023/09/30 12:20:22;;;;;;;7.63;2.83;;;24.40;90.20;;;;;;4933114;28;20031;-80
2023/09/30 12:22:49;;;;;;;4.57;2.13;;;23.80;92.00;;;;;;4974265;28;20031;-80
2023/09/30 12:25:14;;;;;;;5.70;2.00;;;24.70;87.80;;;;;;4973395;28;20045;-81
2023/09/30 12:27:40;;;;;;;7.63;3.35;;;24.90;89.00;;;;;;4971967;28;20046;-80
2023/09/30 12:30:06;;;;;;;4.38;2.13;;;23.40;93.90;;;;;;4971296;28;20035;-80
2023/09/30 12:32:32;;;;;;;6.75;2.47;;;23.50;93.20;;;;;;4969345;28;20042;-80
2023/09/30 12:34:58;;;;;;;7.05;2.92;;;23.30;93.30;;;;;;4970713;28;20084;-81
2023/09/30 12:37:23;;;;;;;5.88;2.40;;;24.30;90.30;;;;;;4960156;28;20043;-80
2023/09/30 12:39:49;;;;;;;2.10;1.63;;;24.30;91.50;;;;;;4973641;28;20030;-80